地図

経路データ

SID SEASON NUMBER BASIN SUBBASIN NAME ISO_TIME NATURE LAT LON WMO_WIND WMO_PRES WMO_AGENCY TRACK_TYPE DIST2LAND LANDFALL IFLAG USA_AGENCY USA_ATCF_ID USA_LAT USA_LON USA_RECORD USA_STATUS USA_WIND USA_PRES USA_SSHS USA_R34_NE USA_R34_SE USA_R34_SW USA_R34_NW USA_R50_NE USA_R50_SE USA_R50_SW USA_R50_NW USA_R64_NE USA_R64_SE USA_R64_SW USA_R64_NW USA_POCI USA_ROCI USA_RMW USA_EYE TOKYO_LAT TOKYO_LON TOKYO_GRADE TOKYO_WIND TOKYO_PRES TOKYO_R50_DIR TOKYO_R50_LONG TOKYO_R50_SHORT TOKYO_R30_DIR TOKYO_R30_LONG TOKYO_R30_SHORT TOKYO_LAND CMA_LAT CMA_LON CMA_CAT CMA_WIND CMA_PRES HKO_LAT HKO_LON HKO_CAT HKO_WIND HKO_PRES NEWDELHI_LAT NEWDELHI_LON NEWDELHI_GRADE NEWDELHI_WIND NEWDELHI_PRES NEWDELHI_CI NEWDELHI_DP NEWDELHI_POCI REUNION_LAT REUNION_LON REUNION_TYPE REUNION_WIND REUNION_PRES REUNION_TNUM REUNION_CI REUNION_RMW REUNION_R34_NE REUNION_R34_SE REUNION_R34_SW REUNION_R34_NW REUNION_R50_NE REUNION_R50_SE REUNION_R50_SW REUNION_R50_NW REUNION_R64_NE REUNION_R64_SE REUNION_R64_SW REUNION_R64_NW BOM_LAT BOM_LON BOM_TYPE BOM_WIND BOM_PRES BOM_TNUM BOM_CI BOM_RMW BOM_R34_NE BOM_R34_SE BOM_R34_SW BOM_R34_NW BOM_R50_NE BOM_R50_SE BOM_R50_SW BOM_R50_NW BOM_R64_NE BOM_R64_SE BOM_R64_SW BOM_R64_NW BOM_ROCI BOM_POCI BOM_EYE BOM_POS_METHOD BOM_PRES_METHOD NADI_LAT NADI_LON NADI_CAT NADI_WIND NADI_PRES WELLINGTON_LAT WELLINGTON_LON WELLINGTON_WIND WELLINGTON_PRES DS824_LAT DS824_LON DS824_STAGE DS824_WIND DS824_PRES TD9636_LAT TD9636_LON TD9636_STAGE TD9636_WIND TD9636_PRES TD9635_LAT TD9635_LON TD9635_WIND TD9635_PRES TD9635_ROCI NEUMANN_LAT NEUMANN_LON NEUMANN_CLASS NEUMANN_WIND NEUMANN_PRES MLC_LAT MLC_LON MLC_CLASS MLC_WIND MLC_PRES USA_GUST BOM_GUST BOM_GUST_PER REUNION_GUST REUNION_GUST_PER USA_SEAHGT USA_SEARAD_NE USA_SEARAD_SE USA_SEARAD_SW USA_SEARAD_NW STORM_SPEED STORM_DIR
1982140N11255 1982 30 EP MM ALETTA 1982-05-20 00:00:00 TS 11.0000 -104.800 25 hurdat_epa main 810 805 O_________O___ hurdat_epa EP011982 11.0000 -104.800 TD 25 -1 11.0000 -104.800 1 25 4 296
1982140N11255 1982 30 EP MM ALETTA 1982-05-20 03:00:00 TS 11.0965 -104.999 main 811 807 P_________P___ EP011982 11.1000 -104.995 TD 25 -1 11.0861 -105.011 1 25 4 296
1982140N11255 1982 30 EP MM ALETTA 1982-05-20 06:00:00 TS 11.1944 -105.204 25 hurdat_epa main 810 803 O_________P___ hurdat_epa EP011982 11.2000 -105.200 TD 25 -1 11.1776 -105.218 1 25 5 296
1982140N11255 1982 30 EP MM ALETTA 1982-05-20 09:00:00 TS 11.2951 -105.415 main 807 800 P_________P___ EP011982 11.3000 -105.415 TD 25 -1 11.2804 -105.415 1 25 4 298
1982140N11255 1982 30 EP MM ALETTA 1982-05-20 12:00:00 TS 11.4000 -105.600 25 hurdat_epa main 803 796 O_________O___ hurdat_epa EP011982 11.4000 -105.600 TD 25 -1 11.4000 -105.600 1 25 4 304
1982140N11255 1982 30 EP MM ALETTA 1982-05-20 15:00:00 TS 11.4986 -105.728 main 796 789 P_________P___ EP011982 11.4850 -105.715 TD 25 -1 11.5396 -105.765 1 26 3 315
1982140N11255 1982 30 EP MM ALETTA 1982-05-20 18:00:00 TS 11.6231 -105.824 25 hurdat_epa main 789 771 O_________P___ hurdat_epa EP011982 11.6000 -105.800 TD 25 -1 11.6924 -105.897 1 27 4 325
1982140N11255 1982 30 EP MM ALETTA 1982-05-20 21:00:00 TS 11.8066 -105.948 main 771 754 P_________P___ EP011982 11.7925 -105.937 TD 27 -1 11.8490 -105.981 1 28 4 335
1982140N11255 1982 30 EP MM ALETTA 1982-05-21 00:00:00 TS 12.0000 -106.000 30 hurdat_epa main 754 740 O_________O___ hurdat_epa EP011982 12.0000 -106.000 TD 30 -1 12.0000 -106.000 1 30 4 9
1982140N11255 1982 30 EP MM ALETTA 1982-05-21 03:00:00 TS 12.1578 -105.897 main 729 711 P_________P___ EP011982 12.1650 -105.880 TD 30 -1 12.1362 -105.948 1 30 4 42
1982140N11255 1982 30 EP MM ALETTA 1982-05-21 06:00:00 TS 12.2912 -105.733 30 hurdat_epa main 711 697 O_________P___ hurdat_epa EP011982 12.3000 -105.700 TD 30 -1 12.2650 -105.833 1 30 4 49
1982140N11255 1982 30 EP MM ALETTA 1982-05-21 09:00:00 TS 12.3965 -105.619 main 697 683 P_________P___ EP011982 12.4000 -105.600 TD 30 -1 12.3862 -105.676 1 30 3 48
1982140N11255 1982 30 EP MM ALETTA 1982-05-21 12:00:00 TS 12.5000 -105.500 30 hurdat_epa main 683 669 O_________O___ hurdat_epa EP011982 12.5000 -105.500 TD 30 -1 12.5000 -105.500 1 30 4 46
1982140N11255 1982 30 EP MM ALETTA 1982-05-21 15:00:00 TS 12.6439 -105.358 main 669 641 P_________P___ EP011982 12.6575 -105.365 TD 32 -1 12.6031 -105.335 1 32 4 48
1982140N11255 1982 30 EP MM ALETTA 1982-05-21 18:00:00 TS 12.7750 -105.189 35 hurdat_epa main 641 634 O_________P___ hurdat_epa EP011982 12.8000 -105.200 TS 35 0 12.7000 -105.157 1 35 4 61
1982140N11255 1982 30 EP MM ALETTA 1982-05-21 21:00:00 TS 12.8367 -104.994 main 634 616 P_________P___ EP011982 12.8500 -105.000 TS 37 0 12.7969 -104.976 1 37 4 72
1982140N11255 1982 30 EP MM ALETTA 1982-05-22 00:00:00 TS 12.9000 -104.800 40 hurdat_epa main 616 599 O_________O___ hurdat_epa EP011982 12.9000 -104.800 TS 40 0 12.9000 -104.800 2 40 4 60
1982140N11255 1982 30 EP MM ALETTA 1982-05-22 03:00:00 TS 13.0343 -104.641 main 599 574 P_________P___ EP011982 13.0425 -104.643 TS 42 0 13.0097 -104.635 2 42 4 47
1982140N11255 1982 30 EP MM ALETTA 1982-05-22 06:00:00 TS 13.1819 -104.494 45 hurdat_epa main 574 556 O_________P___ hurdat_epa EP011982 13.2000 -104.500 TS 45 0 13.1275 -104.477 2 45 4 49
1982140N11255 1982 30 EP MM ALETTA 1982-05-22 09:00:00 TS 13.2891 -104.340 main 556 542 P_________P___ EP011982 13.3000 -104.342 TS 47 0 13.2566 -104.332 2 47 4 52
1982140N11255 1982 30 EP MM ALETTA 1982-05-22 12:00:00 TS 13.4000 -104.200 50 hurdat_epa main 542 528 O_________O___ hurdat_epa EP011982 13.4000 -104.200 TS 50 0 13.4000 -104.200 2 50 4 43
1982140N11255 1982 30 EP MM ALETTA 1982-05-22 15:00:00 TS 13.5444 -104.092 main 528 504 P_________P___ EP011982 13.5350 -104.092 TS 50 0 13.5728 -104.090 2 51 4 32
1982140N11255 1982 30 EP MM ALETTA 1982-05-22 18:00:00 TS 13.7144 -103.998 50 hurdat_epa main 504 479 O_________P___ hurdat_epa EP011982 13.7000 -104.000 TS 50 0 13.7574 -103.992 2 52 4 27
1982140N11255 1982 30 EP MM ALETTA 1982-05-22 21:00:00 TS 13.9096 -103.900 main 479 454 P_________P___ EP011982 13.9000 -103.900 TS 52 0 13.9384 -103.899 2 53 4 27
1982140N11255 1982 30 EP MM ALETTA 1982-05-23 00:00:00 TS 14.1000 -103.800 55 hurdat_epa main 454 429 O_________O___ hurdat_epa EP011982 14.1000 -103.800 TS 55 0 14.1000 -103.800 2 55 4 28
1982140N11255 1982 30 EP MM ALETTA 1982-05-23 03:00:00 TS 14.2618 -103.704 main 429 415 P_________P___ EP011982 14.2725 -103.707 TS 52 0 14.2296 -103.694 2 53 3 35
1982140N11255 1982 30 EP MM ALETTA 1982-05-23 06:00:00 TS 14.3844 -103.595 50 hurdat_epa main 415 401 O_________P___ hurdat_epa EP011982 14.4000 -103.600 TS 50 0 14.3374 -103.580 2 52 3 50
1982140N11255 1982 30 EP MM ALETTA 1982-05-23 09:00:00 TS 14.4554 -103.461 main 401 391 P_________P___ EP011982 14.4650 -103.465 TS 50 0 14.4265 -103.451 2 51 3 68
1982140N11255 1982 30 EP MM ALETTA 1982-05-23 12:00:00 TS 14.5000 -103.300 50 hurdat_epa main 391 370 O_________O___ hurdat_epa EP011982 14.5000 -103.300 TS 50 0 14.5000 -103.300 2 50 4 74
1982140N11255 1982 30 EP MM ALETTA 1982-05-23 15:00:00 TS 14.5546 -103.109 main 370 358 P_________P___ EP011982 14.5500 -103.108 TS 47 0 14.5685 -103.113 2 48 4 75
1982140N11255 1982 30 EP MM ALETTA 1982-05-23 18:00:00 TS 14.6056 -102.902 45 hurdat_epa main 358 337 O_________P___ hurdat_epa EP011982 14.6000 -102.900 TS 45 0 14.6226 -102.907 2 47 4 76
1982140N11255 1982 30 EP MM ALETTA 1982-05-23 21:00:00 TS 14.6538 -102.694 main 337 327 P_________P___ EP011982 14.6500 -102.693 TS 45 0 14.6654 -102.698 2 46 4 76
1982140N11255 1982 30 EP MM ALETTA 1982-05-24 00:00:00 TS 14.7000 -102.500 45 hurdat_epa main 327 318 O_________O___ hurdat_epa EP011982 14.7000 -102.500 TS 45 0 14.7000 -102.500 2 45 4 74
1982140N11255 1982 30 EP MM ALETTA 1982-05-24 03:00:00 TS 14.7522 -102.339 main 307 303 P_________P___ EP011982 14.7575 -102.343 TS 45 0 14.7362 -102.327 2 45 3 73
1982140N11255 1982 30 EP MM ALETTA 1982-05-24 06:00:00 TS 14.7912 -102.193 45 hurdat_epa main 303 295 O_________P___ hurdat_epa EP011982 14.8000 -102.200 TS 45 0 14.7649 -102.170 2 45 3 80
1982140N11255 1982 30 EP MM ALETTA 1982-05-24 09:00:00 TS 14.8022 -102.039 main 295 292 P_________P___ EP011982 14.8075 -102.042 TS 45 0 14.7862 -102.027 2 45 3 88
1982140N11255 1982 30 EP MM ALETTA 1982-05-24 12:00:00 TS 14.8000 -101.900 45 hurdat_epa main 292 289 O_________O___ hurdat_epa EP011982 14.8000 -101.900 TS 45 0 14.8000 -101.900 2 45 2 89
1982140N11255 1982 30 EP MM ALETTA 1982-05-24 15:00:00 TS 14.8048 -101.788 main 289 285 P_________P___ EP011982 14.8000 -101.793 TS 45 0 14.8194 -101.773 2 45 2 88
1982140N11255 1982 30 EP MM ALETTA 1982-05-24 18:00:00 TS 14.8075 -101.691 45 hurdat_epa main 285 281 O_________P___ hurdat_epa EP011982 14.8000 -101.700 TS 45 0 14.8300 -101.663 2 45 2 88
1982140N11255 1982 30 EP MM ALETTA 1982-05-24 21:00:00 TS 14.8120 -101.587 main 281 278 P_________P___ EP011982 14.8075 -101.593 TS 45 0 14.8256 -101.570 2 45 2 92
1982140N11255 1982 30 EP MM ALETTA 1982-05-25 00:00:00 TS 14.8000 -101.500 45 hurdat_epa main 278 274 O_________O___ hurdat_epa EP011982 14.8000 -101.500 TS 45 0 14.8000 -101.500 2 45 2 110
1982140N11255 1982 30 EP MM ALETTA 1982-05-25 03:00:00 TS 14.7604 -101.439 main 274 274 P_________P___ EP011982 14.7650 -101.435 TS 45 0 14.7465 -101.449 2 43 1 141
1982140N11255 1982 30 EP MM ALETTA 1982-05-25 06:00:00 TS 14.6931 -101.405 45 hurdat_epa main 285 285 O_________P___ hurdat_epa EP011982 14.7000 -101.400 TS 45 0 14.6725 -101.420 2 42 2 167
1982140N11255 1982 30 EP MM ALETTA 1982-05-25 09:00:00 TS 14.5968 -101.396 main 295 295 P_________P___ EP011982 14.6000 -101.393 TS 42 0 14.5872 -101.406 2 41 2 175
1982140N11255 1982 30 EP MM ALETTA 1982-05-25 12:00:00 TS 14.5000 -101.400 40 hurdat_epa main 306 306 O_________O___ hurdat_epa EP011982 14.5000 -101.400 TS 40 0 14.5000 -101.400 2 40 2 0
1982140N11255 1982 30 EP MM ALETTA 1982-05-25 15:00:00 TS 14.4427 -101.393 main 315 315 P_________P___ EP011982 14.4500 -101.400 TS 40 0 14.4209 -101.372 2 38 1 0
1982140N11255 1982 30 EP MM ALETTA 1982-05-25 18:00:00 TS 14.3856 -101.389 40 hurdat_epa main 315 315 O_________P___ hurdat_epa EP011982 14.4000 -101.400 TS 40 0 14.3425 -101.355 2 37 2 170
1982140N11255 1982 30 EP MM ALETTA 1982-05-25 21:00:00 TS 14.2919 -101.379 main 324 324 P_________P___ EP011982 14.3000 -101.385 TS 37 0 14.2678 -101.360 2 36 2 0
1982140N11255 1982 30 EP MM ALETTA 1982-05-26 00:00:00 TS 14.2000 -101.400 35 hurdat_epa main 333 333 O_________O___ hurdat_epa EP011982 14.2000 -101.400 TS 35 0 14.2000 -101.400 2 35 2 212
1982140N11255 1982 30 EP MM ALETTA 1982-05-26 03:00:00 TS 14.1416 -101.479 main 349 349 P_________P___ EP011982 14.1425 -101.478 TS 35 0 14.1388 -101.485 2 35 2 242
1982140N11255 1982 30 EP MM ALETTA 1982-05-26 06:00:00 TS 14.0963 -101.601 35 hurdat_epa main 355 355 O_________P___ hurdat_epa EP011982 14.1000 -101.600 TS 35 0 14.0850 -101.605 2 35 3 250
1982140N11255 1982 30 EP MM ALETTA 1982-05-26 09:00:00 TS 14.0472 -101.744 main 370 370 P_________P___ EP011982 14.0500 -101.743 TS 35 0 14.0388 -101.748 2 35 3 252
1982140N11255 1982 30 EP MM ALETTA 1982-05-26 12:00:00 TS 14.0000 -101.900 35 hurdat_epa main 377 377 O_________O___ hurdat_epa EP011982 14.0000 -101.900 TS 35 0 14.0000 -101.900 2 35 3 251
1982140N11255 1982 30 EP MM ALETTA 1982-05-26 15:00:00 TS 13.9448 -102.048 main 391 391 P_________P___ EP011982 13.9425 -102.050 TS 35 0 13.9516 -102.043 2 35 3 251
1982140N11255 1982 30 EP MM ALETTA 1982-05-26 18:00:00 TS 13.9031 -102.198 35 hurdat_epa main 398 398 O_________P___ hurdat_epa EP011982 13.9000 -102.200 TS 35 0 13.9125 -102.193 2 35 3 258
1982140N11255 1982 30 EP MM ALETTA 1982-05-26 21:00:00 TS 13.8868 -102.343 main 401 401 P_________P___ EP011982 13.8850 -102.343 TS 35 0 13.8922 -102.346 2 35 3 269
1982140N11255 1982 30 EP MM ALETTA 1982-05-27 00:00:00 TS 13.9000 -102.500 35 hurdat_epa main 409 409 O_________O___ hurdat_epa EP011982 13.9000 -102.500 TS 35 0 13.9000 -102.500 2 35 3 278
1982140N11255 1982 30 EP MM ALETTA 1982-05-27 03:00:00 TS 13.9358 -102.693 main 417 407 P_________P___ EP011982 13.9350 -102.707 TS 35 0 13.9381 -102.650 2 33 4 285
1982140N11255 1982 30 EP MM ALETTA 1982-05-27 06:00:00 TS 14.0012 -102.875 35 hurdat_epa main 416 406 O_________P___ hurdat_epa EP011982 14.0000 -102.900 TS 35 0 14.0050 -102.800 2 32 3 298
1982140N11255 1982 30 EP MM ALETTA 1982-05-27 09:00:00 TS 14.0873 -102.988 main 411 402 P_________P___ EP011982 14.0849 -103.000 TS 32 -1 14.0943 -102.950 2 31 3 313
1982140N11255 1982 30 EP MM ALETTA 1982-05-27 12:00:00 TS 14.2000 -103.100 30 hurdat_epa main 407 404 O_________O___ hurdat_epa EP011982 14.2000 -103.100 TD 30 -1 14.2000 -103.100 1 30 4 310
1982140N11255 1982 30 EP MM ALETTA 1982-05-27 15:00:00 TS 14.3402 -103.294 main 410 398 P_________P___ EP011982 14.3500 -103.300 TD 30 -1 14.3107 -103.274 1 30 5 307
1982140N11255 1982 30 EP MM ALETTA 1982-05-27 18:00:00 TS 14.4838 -103.486 30 hurdat_epa main 401 394 O_________P___ hurdat_epa EP011982 14.5000 -103.500 TD 30 -1 14.4351 -103.445 1 30 4 309
1982140N11255 1982 30 EP MM ALETTA 1982-05-27 21:00:00 TS 14.5917 -103.615 main 394 387 P_________P___ EP011982 14.6000 -103.623 TD 30 -1 14.5669 -103.593 1 30 3 316
1982140N11255 1982 30 EP MM ALETTA 1982-05-28 00:00:00 TS 14.7000 -103.700 30 hurdat_epa main 387 376 O_________O___ hurdat_epa EP011982 14.7000 -103.700 TD 30 -1 14.7000 -103.700 1 30 3 329
1982140N11255 1982 30 EP MM ALETTA 1982-05-28 03:00:00 TS 14.8468 -103.771 main 380 359 P_________P___ EP011982 14.8500 -103.772 TD 27 -1 14.8371 -103.768 1 28 3 342
1982140N11255 1982 30 EP MM ALETTA 1982-05-28 06:00:00 TS 14.9931 -103.798 25 hurdat_epa main 359 348 O_________P___ hurdat_epa EP011982 15.0000 -103.800 TD 25 -1 14.9724 -103.790 1 27 3 0
1982140N11255 1982 30 EP MM ALETTA 1982-05-28 09:00:00 TS 15.1104 -103.777 main 348 334 P_________P___ EP011982 15.1150 -103.780 TD 25 -1 15.0965 -103.768 1 26 2 24
1982140N11255 1982 30 EP MM ALETTA 1982-05-28 12:00:00 TS 15.2000 -103.700 25 hurdat_epa main 334 320 O_________O___ hurdat_epa EP011982 15.2000 -103.700 TD 25 -1 15.2000 -103.700 1 25 2 53
1982140N11255 1982 30 EP MM ALETTA 1982-05-28 15:00:00 TS 15.2600 -103.572 main 320 313 P_________P___ EP011982 15.2575 -103.565 TD 25 -1 15.2676 -103.593 1 25 3 70
1982140N11255 1982 30 EP MM ALETTA 1982-05-28 18:00:00 TS 15.3038 -103.411 25 hurdat_epa main 313 309 O_________P___ hurdat_epa EP011982 15.3000 -103.400 TD 25 -1 15.3151 -103.445 1 25 3 73
1982140N11255 1982 30 EP MM ALETTA 1982-05-28 21:00:00 TS 15.3513 -103.256 main 299 292 P_________P___ EP011982 15.3500 -103.250 TD 25 -1 15.3550 -103.274 1 25 3 72
1982140N11255 1982 30 EP MM ALETTA 1982-05-29 00:00:00 TS 15.4000 -103.100 25 hurdat_epa main 292 289 O_________O___ hurdat_epa EP011982 15.4000 -103.100 TD 25 -1 15.4000 -103.100 1 25 3 72
1982140N11255 1982 30 EP MM ALETTA 1982-05-29 03:00:00 TS 15.4468 -102.947 main 286 271 P_________P___ EP011982 15.4425 -102.950 TD 25 -1 15.4597 -102.937 1 25 3 70
1982140N11255 1982 30 EP MM ALETTA 1982-05-29 06:00:00 TS 15.5081 -102.796 25 hurdat_epa main 271 255 O_________P___ hurdat_epa EP011982 15.5000 -102.800 TD 25 -1 15.5325 -102.785 1 25 3 63
1982140N11255 1982 30 EP MM ALETTA 1982-05-29 09:00:00 TS 15.5960 -102.648 main 248 233 P_________P___ EP011982 15.5900 -102.650 TD 25 -1 15.6141 -102.641 1 25 3 56
1982140N11255 1982 30 EP MM ALETTA 1982-05-29 12:00:00 TS 15.7000 -102.500 25 hurdat_epa main 233 O_________O___ hurdat_epa EP011982 15.7000 -102.500 TD 25 -1 15.7000 -102.500 1 25 4 54

IBTrACS Databaseについて

本データベースは、米国NOAAが公開する1842年以降の世界の熱帯低気圧のベストトラックデータアーカイブInternational Best Track Archive for Climate Stewardship (IBTrACS)を、ウェブで閲覧しやすい形式に変換したものです。

最終更新日:2021-10-21